Time;durP1;ratioP1;P1;durP2;ratioP2;P2;SDS_P1;SDS_P2;PMS_P1;PMS_P2;Temp;Humidity;BMP_temperature;BMP_pressure;BME280_temperature;BME280_humidity;BME280_pressure;Samples;Min_cycle;Max_cycle;Signal;HPM_P1;HPM_P2
2023/12/02 00:00:12;;;;;;;10.25;7.85;;;2.80;91.20;;;;;;5008384;28;20076;-69
2023/12/02 00:02:37;;;;;;;10.20;7.63;;;2.80;91.20;;;;;;5008058;28;20034;-70
2023/12/02 00:05:03;;;;;;;9.90;7.40;;;2.80;91.20;;;;;;5008329;28;20034;-69
2023/12/02 00:07:29;;;;;;;10.65;7.38;;;2.80;91.20;;;;;;4982631;28;20442;-69
2023/12/02 00:09:54;;;;;;;10.60;7.68;;;2.80;91.20;;;;;;5008456;28;20560;-69
2023/12/02 00:12:20;;;;;;;10.23;7.85;;;2.80;91.20;;;;;;5006594;28;20112;-68
2023/12/02 00:14:45;;;;;;;9.32;7.47;;;2.80;91.10;;;;;;5007902;28;20033;-70
2023/12/02 00:17:11;;;;;;;11.13;8.13;;;2.80;91.10;;;;;;5007959;28;20096;-69
2023/12/02 00:19:37;;;;;;;10.05;7.25;;;2.80;91.10;;;;;;5007286;28;20038;-69
2023/12/02 00:22:04;;;;;;;11.40;7.88;;;2.80;91.10;;;;;;5008292;28;20410;-68
2023/12/02 00:24:30;;;;;;;11.48;8.10;;;2.80;91.10;;;;;;5007768;28;20073;-69
2023/12/02 00:26:55;;;;;;;10.00;7.93;;;2.80;91.10;;;;;;5006872;28;20049;-69
2023/12/02 00:29:21;;;;;;;12.05;8.13;;;2.80;91.10;;;;;;5008027;28;20116;-68
2023/12/02 00:31:46;;;;;;;10.68;7.95;;;2.80;91.10;;;;;;5007892;28;20030;-69
2023/12/02 00:34:12;;;;;;;10.57;7.85;;;2.80;91.10;;;;;;5007664;28;20029;-69
2023/12/02 00:36:37;;;;;;;11.68;8.32;;;2.80;91.10;;;;;;4987637;28;20042;-69
2023/12/02 00:39:03;;;;;;;10.93;8.05;;;2.70;91.10;;;;;;4993056;28;20113;-69
2023/12/02 00:41:29;;;;;;;10.10;8.05;;;2.70;91.10;;;;;;4989505;28;20109;-69
2023/12/02 00:43:54;;;;;;;11.25;8.20;;;2.70;91.10;;;;;;5007466;28;20129;-69
2023/12/02 00:46:20;;;;;;;10.82;8.18;;;2.70;91.10;;;;;;4989207;28;20033;-67
2023/12/02 00:48:48;;;;;;;10.80;7.80;;;2.70;91.20;;;;;;4988519;28;20045;-69
2023/12/02 00:51:14;;;;;;;10.75;8.07;;;2.70;91.20;;;;;;5007492;28;20088;-69
2023/12/02 00:53:39;;;;;;;9.93;7.85;;;2.70;91.20;;;;;;5006814;28;20441;-68
2023/12/02 00:56:05;;;;;;;10.70;7.90;;;2.70;91.20;;;;;;5006943;28;20053;-69
2023/12/02 00:58:31;;;;;;;10.70;7.82;;;2.70;91.60;;;;;;5005594;28;20129;-69
2023/12/02 01:00:57;;;;;;;9.57;7.25;;;2.70;91.20;;;;;;5007240;28;20439;-68
2023/12/02 01:03:22;;;;;;;10.40;8.00;;;2.70;91.20;;;;;;5006943;28;20096;-68
2023/12/02 01:05:48;;;;;;;10.52;8.13;;;2.70;91.20;;;;;;4989743;28;20248;-69
2023/12/02 01:08:13;;;;;;;11.07;8.13;;;2.70;91.20;;;;;;5007443;28;20034;-68
2023/12/02 01:10:39;;;;;;;12.57;9.25;;;2.80;91.20;;;;;;5003607;28;20415;-68
2023/12/02 01:13:04;;;;;;;13.02;8.82;;;2.80;91.10;;;;;;5007114;28;20026;-69
2023/12/02 01:15:30;;;;;;;13.23;9.13;;;2.80;91.10;;;;;;5006967;28;20520;-68
2023/12/02 01:17:55;;;;;;;12.15;8.23;;;2.70;91.10;;;;;;5006314;28;20026;-68
2023/12/02 01:20:21;;;;;;;11.82;8.00;;;2.70;91.10;;;;;;4988916;28;20061;-68
2023/12/02 01:22:47;;;;;;;10.75;7.82;;;2.80;91.10;;;;;;4996895;28;20042;-68
2023/12/02 01:25:12;;;;;;;10.90;7.82;;;2.70;91.10;;;;;;5007155;28;20022;-68
2023/12/02 01:27:38;;;;;;;11.25;8.35;;;2.80;91.10;;;;;;4988440;28;20077;-68
2023/12/02 01:30:04;;;;;;;12.05;8.48;;;2.80;91.10;;;;;;4989001;28;20038;-68
2023/12/02 01:32:29;;;;;;;11.82;8.35;;;2.70;90.90;;;;;;5005974;28;20034;-68
2023/12/02 01:34:55;;;;;;;12.25;8.18;;;2.70;91.00;;;;;;5005773;28;20506;-67
2023/12/02 01:37:20;;;;;;;11.18;8.10;;;2.70;91.00;;;;;;5006728;28;20042;-67
2023/12/02 01:39:46;;;;;;;11.75;8.57;;;2.70;91.00;;;;;;4988467;28;20564;-68
2023/12/02 01:42:12;;;;;;;12.55;8.68;;;2.70;90.90;;;;;;5006647;28;20482;-68
2023/12/02 01:44:37;;;;;;;12.00;8.85;;;2.70;91.00;;;;;;5005527;28;20034;-68
2023/12/02 01:47:04;;;;;;;11.40;7.82;;;2.70;91.00;;;;;;5006102;28;20045;-68
2023/12/02 01:49:31;;;;;;;11.85;8.50;;;2.70;91.00;;;;;;5005706;28;20036;-68
2023/12/02 01:51:58;;;;;;;12.52;8.73;;;2.70;91.00;;;;;;5005993;28;20034;-68
2023/12/02 01:54:23;;;;;;;11.10;8.43;;;2.60;91.10;;;;;;5005189;28;20030;-67
2023/12/02 01:56:49;;;;;;;12.02;8.70;;;2.60;91.00;;;;;;5006025;28;20044;-68
2023/12/02 01:59:15;;;;;;;12.95;8.90;;;2.60;91.00;;;;;;5005672;28;20038;-68
2023/12/02 02:01:40;;;;;;;12.35;8.90;;;2.60;91.10;;;;;;5003468;28;20109;-68
2023/12/02 02:04:06;;;;;;;12.20;8.57;;;2.60;91.10;;;;;;4987873;28;20045;-68
2023/12/02 02:06:32;;;;;;;12.82;8.93;;;2.60;91.10;;;;;;5005814;28;20030;-68
2023/12/02 02:08:58;;;;;;;11.50;8.50;;;2.50;91.10;;;;;;5005611;28;20046;-68
2023/12/02 02:11:23;;;;;;;13.45;8.95;;;2.50;91.10;;;;;;5001987;28;20069;-68
2023/12/02 02:13:49;;;;;;;10.63;8.07;;;2.50;91.10;;;;;;5006394;28;20342;-68
2023/12/02 02:16:14;;;;;;;11.45;8.02;;;2.50;91.10;;;;;;5006271;28;20042;-68
2023/12/02 02:18:40;;;;;;;11.63;8.50;;;2.50;91.50;;;;;;5005301;28;20529;-67
2023/12/02 02:21:06;;;;;;;10.75;7.75;;;2.50;91.10;;;;;;5005992;28;20118;-68
2023/12/02 02:23:31;;;;;;;10.50;7.55;;;2.50;91.10;;;;;;5005491;28;20514;-68
2023/12/02 02:25:57;;;;;;;10.50;7.75;;;2.50;91.00;;;;;;5005742;28;20571;-68
2023/12/02 02:28:25;;;;;;;10.52;7.47;;;2.50;91.10;;;;;;5005108;28;20029;-68
2023/12/02 02:30:51;;;;;;;11.15;7.82;;;2.50;91.10;;;;;;5004812;28;20064;-68
2023/12/02 02:33:17;;;;;;;10.65;7.93;;;2.50;91.10;;;;;;5005693;28;20092;-68
2023/12/02 02:35:43;;;;;;;10.32;7.63;;;2.50;91.10;;;;;;5004674;28;20030;-68
2023/12/02 02:38:09;;;;;;;11.13;7.72;;;2.50;91.10;;;;;;5005075;28;20592;-68
2023/12/02 02:40:34;;;;;;;10.85;7.68;;;2.50;91.10;;;;;;5004495;28;20583;-67
2023/12/02 02:43:00;;;;;;;10.43;8.02;;;2.50;91.00;;;;;;5005595;28;20041;-68
2023/12/02 02:45:26;;;;;;;11.38;8.43;;;2.50;91.00;;;;;;5004729;28;20034;-68
2023/12/02 02:47:52;;;;;;;9.73;7.65;;;2.50;91.00;;;;;;4987372;28;20034;-68
2023/12/02 02:50:18;;;;;;;10.90;8.13;;;2.50;91.00;;;;;;5006247;28;20425;-68
2023/12/02 02:52:44;;;;;;;12.00;8.60;;;2.50;91.00;;;;;;5008316;28;20157;-68
2023/12/02 02:55:09;;;;;;;11.13;8.10;;;2.50;91.10;;;;;;5009358;28;20061;-67
2023/12/02 02:57:35;;;;;;;10.68;7.72;;;2.50;91.10;;;;;;5009567;28;20066;-68
2023/12/02 03:00:01;;;;;;;10.57;7.75;;;2.50;91.10;;;;;;5009189;28;20095;-68
2023/12/02 03:02:27;;;;;;;11.60;7.82;;;2.50;91.10;;;;;;5009079;28;20459;-66
2023/12/02 03:04:52;;;;;;;10.13;7.57;;;2.50;91.10;;;;;;5009423;28;20026;-68
2023/12/02 03:07:18;;;;;;;10.23;7.85;;;2.60;91.10;;;;;;5009597;28;20038;-67
2023/12/02 03:09:44;;;;;;;10.05;7.25;;;2.60;91.00;;;;;;5009077;28;20121;-68
2023/12/02 03:12:10;;;;;;;10.48;7.63;;;2.60;90.90;;;;;;4989669;28;20030;-67
2023/12/02 03:14:38;;;;;;;9.93;7.32;;;2.60;90.90;;;;;;5008548;28;20045;-67
2023/12/02 03:17:04;;;;;;;10.27;7.45;;;2.60;90.80;;;;;;5008945;28;20133;-67
2023/12/02 03:19:29;;;;;;;9.10;6.70;;;2.60;90.80;;;;;;5008713;28;20157;-67
2023/12/02 03:21:55;;;;;;;10.95;7.40;;;2.50;90.80;;;;;;5009162;28;20041;-67
2023/12/02 03:24:20;;;;;;;10.05;7.63;;;2.50;90.80;;;;;;4991648;28;20030;-66
2023/12/02 03:26:46;;;;;;;9.70;6.95;;;2.50;90.80;;;;;;5008862;28;20704;-68
2023/12/02 03:29:12;;;;;;;11.48;8.60;;;2.50;90.80;;;;;;5008438;28;20042;-67
2023/12/02 03:31:37;;;;;;;10.55;8.23;;;2.50;90.80;;;;;;5008992;28;20030;-67
2023/12/02 03:34:03;;;;;;;10.35;7.38;;;2.40;90.70;;;;;;5008769;28;20465;-67
2023/12/02 03:36:30;;;;;;;11.02;7.53;;;2.40;90.70;;;;;;5007066;28;20037;-67
2023/12/02 03:38:56;;;;;;;8.50;6.55;;;2.40;90.80;;;;;;5008709;28;20034;-67
2023/12/02 03:41:21;;;;;;;9.18;6.78;;;2.40;90.90;;;;;;5008362;28;20565;-67
2023/12/02 03:43:47;;;;;;;9.20;7.05;;;2.40;90.90;;;;;;5008630;28;20441;-67
2023/12/02 03:46:13;;;;;;;9.73;6.55;;;2.40;90.90;;;;;;5008581;28;20038;-68
2023/12/02 03:48:38;;;;;;;10.60;7.78;;;2.40;90.90;;;;;;5007795;28;20121;-67
2023/12/02 03:51:04;;;;;;;10.00;7.07;;;2.40;90.90;;;;;;5008443;28;20413;-67
2023/12/02 03:53:30;;;;;;;9.88;6.97;;;2.40;90.80;;;;;;5007662;28;20339;-67
2023/12/02 03:55:56;;;;;;;10.00;7.22;;;2.40;90.80;;;;;;5008454;28;20030;-67
2023/12/02 03:58:22;;;;;;;10.35;7.00;;;2.40;90.80;;;;;;5007444;28;20045;-66
2023/12/02 04:00:47;;;;;;;11.15;7.93;;;2.40;90.80;;;;;;5007278;28;20030;-67
2023/12/02 04:03:13;;;;;;;9.23;7.13;;;2.40;90.80;;;;;;5008293;28;20115;-67
2023/12/02 04:05:39;;;;;;;12.57;8.20;;;2.40;90.70;;;;;;5007654;28;20033;-67
2023/12/02 04:08:05;;;;;;;9.95;7.55;;;2.40;90.70;;;;;;5007835;28;20038;-66
2023/12/02 04:10:30;;;;;;;9.93;7.28;;;2.40;90.60;;;;;;4996289;28;20060;-67
2023/12/02 04:12:56;;;;;;;10.15;7.50;;;2.40;90.60;;;;;;5008347;28;20037;-67
2023/12/02 04:15:21;;;;;;;9.48;6.85;;;2.40;90.60;;;;;;5007930;28;20038;-67
2023/12/02 04:17:47;;;;;;;9.05;7.03;;;2.40;90.70;;;;;;5007557;28;20059;-66
2023/12/02 04:20:15;;;;;;;11.18;7.88;;;2.40;90.70;;;;;;5008237;28;20030;-66
2023/12/02 04:22:41;;;;;;;10.13;7.20;;;2.40;90.70;;;;;;5006820;28;21458;-66
2023/12/02 04:25:07;;;;;;;9.50;7.15;;;2.40;90.70;;;;;;5007540;28;20573;-67
2023/12/02 04:27:32;;;;;;;9.27;6.78;;;2.40;90.60;;;;;;4989485;28;20036;-67
2023/12/02 04:29:58;;;;;;;10.65;7.38;;;2.40;90.60;;;;;;5007566;28;20045;-67
2023/12/02 04:32:24;;;;;;;9.75;7.18;;;2.40;90.60;;;;;;5006999;28;20040;-66
2023/12/02 04:34:50;;;;;;;10.70;7.82;;;2.50;90.60;;;;;;5006089;28;20109;-66
2023/12/02 04:37:17;;;;;;;11.40;7.57;;;2.50;90.60;;;;;;5006356;28;20117;-67
2023/12/02 04:39:42;;;;;;;10.70;7.75;;;2.50;90.50;;;;;;5006774;28;20068;-67
2023/12/02 04:42:08;;;;;;;10.77;7.60;;;2.50;90.50;;;;;;5007083;28;20065;-67
2023/12/02 04:44:34;;;;;;;10.85;7.45;;;2.50;90.50;;;;;;5005903;28;20397;-66
2023/12/02 04:46:59;;;;;;;10.57;7.75;;;2.50;90.50;;;;;;5007424;28;20106;-67
2023/12/02 04:49:25;;;;;;;10.70;7.60;;;2.50;90.40;;;;;;5007084;28;20530;-67
2023/12/02 04:51:52;;;;;;;10.60;7.68;;;2.50;90.30;;;;;;5007996;28;20026;-67
2023/12/02 04:54:19;;;;;;;9.98;7.28;;;2.40;90.30;;;;;;5007051;28;20046;-67
2023/12/02 04:56:45;;;;;;;10.27;7.28;;;2.40;90.30;;;;;;5006427;28;20068;-67
2023/12/02 04:59:11;;;;;;;11.63;7.13;;;2.40;90.30;;;;;;5006971;28;20355;-67
2023/12/02 05:01:36;;;;;;;11.27;7.88;;;2.40;90.40;;;;;;5007415;28;20040;-67
2023/12/02 05:04:02;;;;;;;10.02;7.43;;;2.40;90.60;;;;;;5007303;28;20467;-67
2023/12/02 05:06:27;;;;;;;9.45;6.75;;;2.40;90.60;;;;;;4988950;28;20520;-67
2023/12/02 05:08:53;;;;;;;9.70;7.22;;;2.40;90.60;;;;;;5006563;28;20129;-66
2023/12/02 05:11:21;;;;;;;9.73;7.10;;;2.40;90.60;;;;;;5003829;28;20099;-67
2023/12/02 05:13:47;;;;;;;9.93;7.55;;;2.50;90.60;;;;;;5006119;28;20452;-66
2023/12/02 05:16:13;;;;;;;10.23;7.43;;;2.50;90.60;;;;;;5006705;28;20034;-66
2023/12/02 05:18:43;;;;;;;8.18;6.32;;;2.50;90.50;;;;;;5005307;28;20250;-66
2023/12/02 05:21:12;;;;;;;10.50;6.60;;;2.50;90.40;;;;;;4988713;28;20049;-67
2023/12/02 05:23:40;;;;;;;8.25;6.43;;;2.50;90.40;;;;;;5005860;28;20129;-67
2023/12/02 05:26:06;;;;;;;10.60;6.78;;;2.60;90.50;;;;;;5006377;28;20213;-66
2023/12/02 05:28:32;;;;;;;10.82;6.57;;;2.50;90.30;;;;;;5005596;28;20038;-66
2023/12/02 05:30:58;;;;;;;9.40;6.63;;;2.50;90.20;;;;;;5006419;28;20092;-66
2023/12/02 05:33:23;;;;;;;9.77;6.63;;;2.50;90.30;;;;;;5006768;28;20505;-66
2023/12/02 05:35:50;;;;;;;8.48;6.40;;;2.50;90.40;;;;;;5005847;28;20441;-66
2023/12/02 05:38:16;;;;;;;9.82;6.85;;;2.50;90.30;;;;;;5006617;28;20065;-66
2023/12/02 05:40:42;;;;;;;10.93;6.53;;;2.50;90.20;;;;;;5005989;28;20092;-66
2023/12/02 05:43:08;;;;;;;8.82;6.25;;;2.50;90.20;;;;;;5006534;28;20038;-66
2023/12/02 05:45:33;;;;;;;8.80;6.45;;;2.50;90.20;;;;;;5006662;28;20031;-66
2023/12/02 05:47:59;;;;;;;9.25;6.40;;;2.50;90.20;;;;;;5006212;28;20246;-65
2023/12/02 05:50:26;;;;;;;9.77;6.97;;;2.50;90.10;;;;;;5006479;28;20446;-65
2023/12/02 05:52:52;;;;;;;9.93;6.82;;;2.50;90.10;;;;;;5005821;28;20472;-66
2023/12/02 05:55:17;;;;;;;11.50;7.75;;;2.40;90.00;;;;;;5006676;28;20157;-66
2023/12/02 05:57:46;;;;;;;11.10;7.55;;;2.40;90.00;;;;;;5005862;28;20057;-66
2023/12/02 06:00:13;;;;;;;10.63;7.32;;;2.40;90.00;;;;;;5006093;28;20557;-66
2023/12/02 06:02:39;;;;;;;12.18;8.05;;;2.30;90.00;;;;;;4987610;28;20029;-66
2023/12/02 06:05:06;;;;;;;11.23;7.90;;;2.30;89.80;;;;;;5006539;28;20032;-66
2023/12/02 06:07:32;;;;;;;10.82;7.45;;;2.30;89.70;;;;;;5006090;28;20042;-66
2023/12/02 06:09:57;;;;;;;11.82;8.05;;;2.20;89.60;;;;;;5006115;28;20608;-65
2023/12/02 06:12:23;;;;;;;10.70;7.40;;;2.20;89.70;;;;;;5004786;28;20041;-68
2023/12/02 06:14:49;;;;;;;12.68;8.45;;;2.20;89.60;;;;;;5006048;28;20030;-66
2023/12/02 06:17:15;;;;;;;11.60;8.18;;;2.10;89.60;;;;;;5006354;28;20034;-66
2023/12/02 06:19:41;;;;;;;11.85;7.90;;;2.10;89.70;;;;;;5004968;28;20705;-66
2023/12/02 06:22:06;;;;;;;11.60;7.93;;;2.00;89.80;;;;;;5005895;28;20038;-67
2023/12/02 06:24:32;;;;;;;14.98;9.65;;;2.00;90.00;;;;;;5005122;28;20034;-66
2023/12/02 06:26:57;;;;;;;14.25;9.15;;;1.90;90.00;;;;;;4996550;28;20588;-66
2023/12/02 06:29:23;;;;;;;14.65;8.75;;;2.00;90.10;;;;;;5005376;28;20449;-66
2023/12/02 06:31:50;;;;;;;13.95;8.95;;;1.90;90.10;;;;;;5005919;28;20117;-66
2023/12/02 06:34:16;;;;;;;11.90;8.18;;;1.90;90.20;;;;;;5006171;28;20041;-66
2023/12/02 06:36:42;;;;;;;12.98;8.73;;;1.90;90.10;;;;;;5003261;28;20042;-66
2023/12/02 06:39:08;;;;;;;14.77;9.52;;;1.90;90.20;;;;;;5006441;28;20129;-66
2023/12/02 06:41:34;;;;;;;14.48;9.52;;;1.90;90.10;;;;;;5005810;28;20105;-66
2023/12/02 06:43:59;;;;;;;15.98;9.45;;;1.90;89.90;;;;;;4995844;28;20034;-66
2023/12/02 06:46:25;;;;;;;15.75;9.43;;;1.90;90.00;;;;;;5009045;28;20443;-67
2023/12/02 06:48:52;;;;;;;15.45;9.63;;;1.90;90.10;;;;;;5005608;28;20049;-65
2023/12/02 06:51:17;;;;;;;14.85;9.63;;;1.90;90.10;;;;;;5005612;28;20393;-66
2023/12/02 06:53:43;;;;;;;17.30;10.88;;;1.90;90.00;;;;;;5005162;28;20029;-66
2023/12/02 06:56:22;;;;;;;18.23;10.95;;;1.90;90.00;;;;;;5005158;28;20030;-66
2023/12/02 06:58:49;;;;;;;18.02;10.75;;;1.80;89.60;;;;;;5002989;28;20533;-65
2023/12/02 07:01:27;;;;;;;17.98;10.82;;;1.80;89.70;;;;;;5005565;28;20060;-66
2023/12/02 07:03:54;;;;;;;15.88;10.30;;;1.80;89.50;;;;;;5005196;28;20061;-67
2023/12/02 07:06:20;;;;;;;14.32;9.75;;;1.80;89.70;;;;;;5005491;28;20045;-67
2023/12/02 07:08:47;;;;;;;17.92;11.00;;;1.70;89.80;;;;;;5004275;28;20041;-66
2023/12/02 07:11:13;;;;;;;16.00;10.52;;;1.70;89.90;;;;;;5002664;28;20050;-66
2023/12/02 07:13:39;;;;;;;18.42;11.45;;;1.70;89.80;;;;;;4987621;28;20037;-66
2023/12/02 07:16:05;;;;;;;17.92;10.98;;;1.60;89.60;;;;;;5005412;28;20041;-67
2023/12/02 07:18:30;;;;;;;18.85;10.85;;;1.60;89.80;;;;;;4986079;28;20132;-66
2023/12/02 07:20:56;;;;;;;17.55;10.82;;;1.60;90.00;;;;;;5005049;28;20033;-66
2023/12/02 07:23:21;;;;;;;18.42;11.52;;;1.50;90.00;;;;;;5004997;28;20030;-66
2023/12/02 07:25:47;;;;;;;18.42;11.35;;;1.60;90.10;;;;;;5004949;28;20121;-66
2023/12/02 07:28:13;;;;;;;17.52;10.75;;;1.60;90.10;;;;;;5004666;28;20509;-66
2023/12/02 07:30:38;;;;;;;16.48;10.05;;;1.50;90.20;;;;;;5003927;28;20414;-66
2023/12/02 07:33:04;;;;;;;17.52;10.48;;;1.50;90.50;;;;;;5005010;28;20044;-67
2023/12/02 07:35:29;;;;;;;18.27;10.50;;;1.50;90.30;;;;;;5003418;28;20179;-67
2023/12/02 07:37:55;;;;;;;17.50;10.60;;;1.60;90.30;;;;;;5007826;28;20041;-66
2023/12/02 07:40:20;;;;;;;17.67;10.65;;;1.60;90.30;;;;;;5009219;28;20053;-66
2023/12/02 07:42:46;;;;;;;18.00;11.40;;;1.60;90.30;;;;;;5008502;28;20107;-67
2023/12/02 07:45:11;;;;;;;18.13;11.40;;;1.70;90.30;;;;;;4999647;28;20030;-67
2023/12/02 07:47:37;;;;;;;17.83;11.10;;;1.70;90.20;;;;;;5008623;28;20572;-66
2023/12/02 07:50:03;;;;;;;18.00;11.65;;;1.70;90.10;;;;;;5009045;28;20359;-66
2023/12/02 07:52:28;;;;;;;16.88;10.18;;;1.70;90.10;;;;;;5008242;28;20073;-67
2023/12/02 07:54:54;;;;;;;17.58;10.63;;;1.70;90.10;;;;;;5008888;28;20056;-67
2023/12/02 07:57:19;;;;;;;17.38;10.50;;;1.70;90.10;;;;;;5008629;28;20034;-67
2023/12/02 07:59:45;;;;;;;18.67;11.27;;;1.70;90.20;;;;;;5008009;28;20355;-65
2023/12/02 08:02:10;;;;;;;17.20;10.88;;;1.70;90.30;;;;;;4989082;28;20041;-67
2023/12/02 08:04:36;;;;;;;18.02;10.68;;;1.70;90.30;;;;;;5008300;28;20042;-67
2023/12/02 08:07:01;;;;;;;17.20;10.55;;;1.80;90.20;;;;;;5008982;28;20594;-67
2023/12/02 08:09:27;;;;;;;18.35;10.63;;;1.80;90.20;;;;;;5009216;28;20515;-67
2023/12/02 08:11:53;;;;;;;17.15;10.35;;;1.80;90.20;;;;;;5006202;28;20459;-67
2023/12/02 08:14:19;;;;;;;15.77;9.63;;;1.90;90.30;;;;;;5009199;28;20125;-67
2023/12/02 08:16:44;;;;;;;18.77;10.85;;;1.90;90.30;;;;;;5007651;28;20037;-67
2023/12/02 08:19:10;;;;;;;17.52;10.75;;;1.90;90.30;;;;;;5008044;28;20030;-68
2023/12/02 08:21:35;;;;;;;24.88;13.05;;;2.00;90.20;;;;;;5008793;28;20026;-67
2023/12/02 08:24:01;;;;;;;26.55;13.45;;;2.10;90.10;;;;;;5008728;28;20111;-68
2023/12/02 08:26:26;;;;;;;21.42;12.00;;;2.00;90.00;;;;;;5008441;28;20022;-68
2023/12/02 08:28:52;;;;;;;18.48;10.88;;;2.00;89.80;;;;;;5008729;28;20033;-68
2023/12/02 08:31:17;;;;;;;16.58;10.10;;;2.00;89.70;;;;;;5009008;28;20038;-68
2023/12/02 08:33:43;;;;;;;14.93;9.77;;;2.00;89.50;;;;;;5008407;28;20113;-68
2023/12/02 08:36:09;;;;;;;16.23;9.68;;;2.00;89.40;;;;;;4989929;28;20034;-68
2023/12/02 08:38:35;;;;;;;15.52;9.13;;;2.00;89.60;;;;;;5007829;28;20592;-67
2023/12/02 08:41:00;;;;;;;15.02;9.40;;;2.00;89.80;;;;;;5009506;28;20038;-68
2023/12/02 08:43:26;;;;;;;15.95;9.25;;;2.00;89.90;;;;;;5008569;28;20030;-68
2023/12/02 08:45:51;;;;;;;14.00;9.02;;;2.00;90.00;;;;;;5009067;28;20485;-68
2023/12/02 08:48:17;;;;;;;15.68;9.25;;;2.00;90.10;;;;;;5007334;28;20065;-68
2023/12/02 08:50:43;;;;;;;14.05;8.85;;;2.00;90.10;;;;;;5008512;28;20037;-67
2023/12/02 08:53:09;;;;;;;16.48;9.93;;;2.00;90.10;;;;;;5008867;28;20030;-68
2023/12/02 08:55:35;;;;;;;17.35;10.27;;;2.00;90.00;;;;;;5008730;28;20044;-68
2023/12/02 08:58:01;;;;;;;17.00;10.23;;;2.00;90.00;;;;;;5008816;28;20433;-68
2023/12/02 09:00:26;;;;;;;17.05;10.43;;;2.10;89.80;;;;;;5007524;28;20034;-68
2023/12/02 09:02:52;;;;;;;16.65;10.52;;;2.00;89.60;;;;;;5008599;28;20109;-67
2023/12/02 09:05:18;;;;;;;14.85;9.27;;;2.00;89.30;;;;;;5008492;28;20037;-68
2023/12/02 09:07:44;;;;;;;16.73;9.88;;;2.00;89.20;;;;;;5007865;28;20168;-68
2023/12/02 09:10:09;;;;;;;15.40;8.88;;;2.00;89.20;;;;;;5008113;28;20065;-68
2023/12/02 09:12:35;;;;;;;16.83;9.02;;;2.00;89.40;;;;;;5006921;28;20418;-68
2023/12/02 09:15:21;;;;;;;14.52;8.68;;;2.00;89.80;;;;;;5007997;28;20099;-67
2023/12/02 09:18:04;;;;;;;16.05;9.43;;;2.00;89.60;;;;;;4996667;28;20026;-68
2023/12/02 09:20:48;;;;;;;16.40;9.45;;;2.00;89.50;;;;;;5006341;28;20026;-67
2023/12/02 09:23:16;;;;;;;14.52;8.65;;;2.00;89.20;;;;;;5007685;28;20049;-68
2023/12/02 09:25:42;;;;;;;11.88;7.85;;;2.00;89.30;;;;;;5006828;28;20026;-68
2023/12/02 09:28:08;;;;;;;12.60;7.93;;;2.00;89.30;;;;;;5007964;28;20557;-68
2023/12/02 09:30:36;;;;;;;13.93;9.20;;;2.00;89.40;;;;;;5007507;28;20034;-68
2023/12/02 09:33:05;;;;;;;14.20;9.05;;;1.90;89.40;;;;;;5008107;28;20034;-68
2023/12/02 09:35:32;;;;;;;17.02;11.20;;;1.90;89.00;;;;;;5006763;28;20030;-68
2023/12/02 09:37:59;;;;;;;14.20;8.65;;;1.90;89.20;;;;;;4998391;28;20061;-68
2023/12/02 09:40:36;;;;;;;13.27;8.30;;;1.90;89.20;;;;;;5007182;28;20030;-68
2023/12/02 09:43:22;;;;;;;14.18;8.55;;;1.90;89.20;;;;;;5007811;28;20046;-69
2023/12/02 09:46:08;;;;;;;13.93;7.63;;;1.90;89.00;;;;;;5008342;28;20096;-68
2023/12/02 09:48:37;;;;;;;13.25;7.80;;;1.90;89.50;;;;;;5006617;28;20128;-69
2023/12/02 09:51:14;;;;;;;14.02;8.55;;;2.00;89.90;;;;;;5008195;28;20084;-68
2023/12/02 09:54:15;;;;;;;16.05;9.38;;;2.00;90.00;;;;;;5007702;28;20037;-69
2023/12/02 09:56:48;;;;;;;13.85;8.30;;;2.10;90.00;;;;;;5006588;28;20045;-68
2023/12/02 09:59:21;;;;;;;12.93;8.30;;;2.10;90.00;;;;;;5006867;28;20038;-68
2023/12/02 10:02:04;;;;;;;13.15;8.35;;;2.10;90.00;;;;;;5007405;28;20096;-69
2023/12/02 10:04:47;;;;;;;13.65;8.43;;;2.20;89.40;;;;;;5007353;28;20422;-68
2023/12/02 10:07:38;;;;;;;15.02;9.27;;;2.20;89.20;;;;;;5007684;28;20045;-68
2023/12/02 10:10:13;;;;;;;15.23;9.75;;;2.20;89.10;;;;;;5007115;28;20069;-68
2023/12/02 10:12:41;;;;;;;16.40;10.80;;;2.30;89.00;;;;;;5005328;28;20057;-67
2023/12/02 10:15:11;;;;;;;14.88;9.90;;;2.20;88.80;;;;;;5007422;28;20044;-69
2023/12/02 10:17:48;;;;;;;15.98;10.07;;;2.20;88.70;;;;;;5006478;28;20470;-68
2023/12/02 10:20:16;;;;;;;15.50;9.82;;;2.20;88.90;;;;;;5007549;28;20038;-68
2023/12/02 10:22:47;;;;;;;15.80;9.88;;;2.20;89.00;;;;;;5006481;28;20494;-68
2023/12/02 10:25:38;;;;;;;15.30;9.77;;;2.20;88.60;;;;;;5007219;28;20038;-68
2023/12/02 10:28:22;;;;;;;14.05;9.00;;;2.20;88.40;;;;;;5006480;28;20038;-68
2023/12/02 10:30:51;;;;;;;12.38;8.07;;;2.10;88.70;;;;;;5005645;28;20034;-68
2023/12/02 10:33:26;;;;;;;13.07;8.27;;;2.20;88.90;;;;;;5007258;28;20034;-68
2023/12/02 10:35:55;;;;;;;14.18;8.68;;;2.10;89.10;;;;;;5005458;28;20026;-68
2023/12/02 10:38:29;;;;;;;14.45;9.50;;;2.10;89.20;;;;;;4988526;28;20429;-69
2023/12/02 10:41:27;;;;;;;19.63;10.25;;;2.10;89.30;;;;;;5006953;28;20513;-69
2023/12/02 10:44:05;;;;;;;16.10;8.95;;;2.10;89.30;;;;;;4989104;28;20038;-69
2023/12/02 10:46:33;;;;;;;15.70;9.80;;;2.10;89.20;;;;;;5005543;28;20026;-68
2023/12/02 10:48:59;;;;;;;15.73;8.85;;;2.10;89.10;;;;;;5005917;28;20041;-68
2023/12/02 10:51:27;;;;;;;14.07;9.10;;;2.10;89.00;;;;;;5004942;28;20026;-68
2023/12/02 10:53:57;;;;;;;12.32;7.75;;;2.00;88.90;;;;;;5006136;28;20049;-69
2023/12/02 10:56:26;;;;;;;12.30;7.95;;;2.00;88.90;;;;;;5006304;28;20030;-68
2023/12/02 10:58:52;;;;;;;9.48;6.55;;;2.00;88.80;;;;;;5005855;28;20061;-69
2023/12/02 11:01:28;;;;;;;8.20;6.30;;;2.00;88.50;;;;;;5006638;28;20042;-68
2023/12/02 11:04:21;;;;;;;8.25;6.03;;;1.90;87.70;;;;;;5006679;28;20048;-68
2023/12/02 11:06:55;;;;;;;7.93;6.25;;;1.90;87.20;;;;;;5005886;28;20034;-69
2023/12/02 11:09:43;;;;;;;7.65;6.05;;;1.80;87.10;;;;;;5005798;28;20046;-69
2023/12/02 11:12:28;;;;;;;7.82;6.10;;;1.80;87.00;;;;;;5008620;28;20150;-68
2023/12/02 11:14:56;;;;;;;;;;;1.70;87.00;;;;;;5010509;28;20653;-68
2023/12/02 11:17:31;;;;;;;8.60;6.25;;;1.70;86.40;;;;;;5010194;28;19917;-67
2023/12/02 11:20:08;;;;;;;7.95;5.90;;;1.60;87.10;;;;;;5010089;28;20036;-69
2023/12/02 11:22:58;;;;;;;9.65;6.68;;;1.60;87.10;;;;;;5009450;28;20506;-68
2023/12/02 11:25:45;;;;;;;9.57;6.45;;;1.60;87.00;;;;;;5010294;28;20033;-69
2023/12/02 11:28:36;;;;;;;11.00;7.03;;;1.50;87.40;;;;;;5010148;28;20084;-68
2023/12/02 11:31:01;;;;;;;8.65;6.38;;;1.50;87.60;;;;;;5008820;28;20048;-68
2023/12/02 11:34:00;;;;;;;8.90;6.75;;;1.40;87.80;;;;;;5010355;28;20030;-69
2023/12/02 11:36:44;;;;;;;8.90;6.60;;;1.40;87.50;;;;;;5007965;28;20084;-69
2023/12/02 11:39:39;;;;;;;11.80;7.70;;;1.40;87.60;;;;;;5009737;28;20056;-68
2023/12/02 11:42:18;;;;;;;11.00;7.80;;;1.40;88.00;;;;;;4990804;28;20104;-69
2023/12/02 11:45:07;;;;;;;11.40;7.72;;;1.40;88.20;;;;;;5008802;28;20042;-69
2023/12/02 11:47:45;;;;;;;15.57;9.38;;;1.40;88.40;;;;;;5009366;28;20073;-68
2023/12/02 11:50:38;;;;;;;10.60;7.60;;;1.40;88.40;;;;;;5001123;28;20115;-68
2023/12/02 11:53:03;;;;;;;15.77;9.35;;;1.40;88.70;;;;;;5009484;28;20040;-69
2023/12/02 11:55:39;;;;;;;12.60;8.57;;;1.40;88.90;;;;;;5008740;28;20026;-69
2023/12/02 11:58:13;;;;;;;16.08;8.75;;;1.40;88.80;;;;;;5009100;28;20077;-69
2023/12/02 12:01:09;;;;;;;19.02;8.95;;;1.40;88.70;;;;;;5008186;28;20413;-68
2023/12/02 12:04:05;;;;;;;15.75;8.82;;;1.40;88.70;;;;;;5008666;28;20534;-69
2023/12/02 12:07:00;;;;;;;19.73;9.75;;;1.40;88.10;;;;;;5008501;28;20030;-68
2023/12/02 12:09:41;;;;;;;19.77;9.07;;;1.40;88.40;;;;;;5008738;28;20041;-69
2023/12/02 12:12:10;;;;;;;16.90;9.07;;;1.40;88.40;;;;;;5006069;28;20092;-69
2023/12/02 12:14:37;;;;;;;14.20;8.45;;;1.40;88.60;;;;;;5008641;28;20075;-69
2023/12/02 12:17:03;;;;;;;19.08;9.30;;;1.40;88.40;;;;;;5009704;28;20521;-69
2023/12/02 12:19:29;;;;;;;13.68;8.77;;;1.40;88.00;;;;;;5008234;28;20103;-69
2023/12/02 12:21:56;;;;;;;19.08;9.32;;;1.40;88.00;;;;;;5008756;28;20026;-69
2023/12/02 12:24:22;;;;;;;17.65;9.27;;;1.40;87.40;;;;;;5009437;28;20117;-69
2023/12/02 12:26:48;;;;;;;16.17;9.25;;;1.40;87.70;;;;;;5007920;28;20113;-69
2023/12/02 12:29:15;;;;;;;27.05;10.80;;;1.30;87.40;;;;;;4991014;28;20096;-69
2023/12/02 12:31:42;;;;;;;12.75;8.63;;;1.30;87.50;;;;;;5007676;28;20555;-68
2023/12/02 12:34:11;;;;;;;23.90;9.73;;;1.30;87.90;;;;;;5008045;28;20034;-68
2023/12/02 12:36:39;;;;;;;13.02;8.50;;;1.30;87.50;;;;;;5006176;28;20022;-68
2023/12/02 12:39:05;;;;;;;11.55;7.45;;;1.30;87.30;;;;;;5008020;28;20042;-69
2023/12/02 12:41:31;;;;;;;10.75;7.50;;;1.20;86.00;;;;;;4989990;28;20551;-68
2023/12/02 12:43:57;;;;;;;11.57;7.63;;;1.20;85.90;;;;;;5009271;28;20533;-68
2023/12/02 12:46:28;;;;;;;11.57;7.47;;;1.10;85.60;;;;;;5006009;28;20034;-68
2023/12/02 12:48:54;;;;;;;11.85;7.60;;;1.10;86.40;;;;;;5007767;28;20042;-69
2023/12/02 12:51:21;;;;;;;11.30;8.07;;;1.00;86.80;;;;;;5008392;28;20072;-69
2023/12/02 12:53:52;;;;;;;11.80;8.18;;;1.00;86.80;;;;;;5007910;28;20071;-68